Flight Track Log - Related Links

Times and Time Zones

All times are in EDT time to prevent confusion due to time zone crossing. See the ASQ6115 flight status page for this flight to view local times or setup timezone preferences in your user account.

Time Position Orientation Groundspeed Altitude Reporting Facility
EDT Latitude Longitude Course Direction KTS MPH feet Rate Location/Type
Fri 08:56:04 29.9575 -95.3442 32° Northeast 164 189 900  Level Houston Center
Fri 08:57:23 29.9731 -95.3978 289° West 279 321 2,600 1,466 Climbing Houston Center
Fri 08:58:15 30.0214 -95.3719 25° Northeast 267 307 4,100 2,226 Climbing Houston Center
Fri 08:58:25 30.0400 -95.3486 47° Northeast 267 307 4,900 2,419 Climbing Houston Center
Fri 08:59:00 30.2625 -94.9898 35° Northeast  Level Estimated
Fri 08:59:17 30.0872 -95.2978 43° Northeast 275 316 6,600  Level Houston Center
Fri 08:59:25 30.0972 -95.2861 45° Northeast 280 322 6,900 1,839 Climbing Houston Center
Fri 09:00:00 30.3319 -94.9015 41° Northeast  Level Estimated
Fri 09:00:19 30.1467 -95.2331 43° Northeast 290 334 8,500  Level Houston Center
Fri 09:01:00 30.4012 -94.8132 32° Northeast  Level Estimated
Fri 09:01:21 30.2133 -95.1792 35° Northeast 290 334 10,200  Level Houston Center
Fri 09:02:22 30.2867 -95.1183 36° Northeast 320 368 10,700 634 Climbing Houston Center
Fri 09:03:24 30.3653 -95.0508 37° Northeast 350 403 11,500 919 Climbing Houston Center
Fri 09:04:26 30.4506 -94.9797 36° Northeast 360 414 12,600 976 Climbing Houston Center
Fri 09:05:27 30.5333 -94.9106 36° Northeast 366 421 13,500 976 Climbing Houston Center
Fri 09:06:29 30.6175 -94.8431 35° Northeast 367 422 14,600 823 Climbing Houston Center
Fri 09:07:31 30.7036 -94.7761 34° Northeast 373 429 15,200 726 Climbing Houston Center
Fri 09:08:33 30.8100 -94.6947 33° Northeast 383 441 16,100 829 Climbing Houston Center
Fri 09:09:34 30.8994 -94.6256 34° Northeast 388 447 16,900 927 Climbing Houston Center
Fri 09:10:36 30.9881 -94.5575 33° Northeast 386 444 18,000 1,065 Climbing Houston Center
Fri 09:11:38 31.0761 -94.4889 34° Northeast 385 443 19,100 1,073 Climbing Houston Center
Fri 09:12:39 31.1633 -94.4206 34° Northeast 383 441 20,200 1,171 Climbing Houston Center
Fri 09:13:41 31.2708 -94.3375 33° Northeast 388 447 21,500 1,161 Climbing Houston Center
Fri 09:14:43 31.3597 -94.2675 34° Northeast 388 447 22,600 1,065 Climbing Houston Center
Fri 09:15:45 31.4475 -94.1997 33° Northeast 381 438 23,700 1,073 Climbing Houston Center
Fri 09:16:46 31.5350 -94.1306 34° Northeast 381 438 24,800 1,073 Climbing Houston Center
Fri 09:17:48 31.6061 -94.0414 47° Northeast 381 438 25,900 1,065 Climbing Houston Center
Fri 09:18:50 31.6725 -93.9472 50° Northeast 377 434 27,000 1,161 Climbing Houston Center
Fri 09:19:52 31.7503 -93.8358 51° Northeast 368 423 28,300 1,171 Climbing Houston Center
Fri 09:20:53 31.8131 -93.7450 51° Northeast 365 420 29,400 1,073 Climbing Houston Center
Fri 09:21:55 31.8769 -93.6544 50° Northeast 360 414 30,500 1,065 Climbing Houston Center
Fri 09:22:57 31.9386 -93.5653 51° Northeast 353 406 31,600 871 Climbing Houston Center
Fri 09:23:59 32.0014 -93.4750 51° Northeast 354 407 32,300 721 Climbing Houston Center
Fri 09:26:00 32.1353 -93.2869 50° Northeast 361 415 33,800 762 Climbing Fort Center
Fri 09:27:00 32.2047 -93.1758 54° Northeast 371 427 34,600 600 Climbing Fort Center
Fri 09:28:00 32.2544 -93.1022 51° Northeast 371 427 35,000 200 Climbing Fort Center
Fri 09:29:00 32.3322 -92.9978 49° Northeast 371 427 35,000  Level Fort Center
Fri 09:30:00 32.4056 -92.8908 51° Northeast 389 448 35,000  Level Fort Center
Fri 09:31:00 32.4906 -92.7611 52° Northeast 424 488 35,000  Level Fort Center
Fri 09:32:00 32.5678 -92.6486 51° Northeast 434 499 35,000  Level Fort Center
Fri 09:33:00 32.6389 -92.5439 51° Northeast 429 494 35,000  Level Fort Center
Fri 09:34:00 32.7100 -92.4364 52° Northeast 423 487 35,000  Level Fort Center
Fri 09:36:03 32.8458 -92.2367 51° Northeast 394 453 35,000  Level Memphis Center
Fri 09:37:03 32.9142 -92.1364 51° Northeast 394 453 35,000  Level Memphis Center
Fri 09:38:03 32.9822 -92.0389 50° Northeast 389 448 35,000  Level Memphis Center
Fri 09:39:03 33.0419 -91.9383 55° Northeast 383 441 35,000  Level Memphis Center
Fri 09:40:03 33.1119 -91.8356 51° Northeast 383 441 35,000  Level Memphis Center
Fri 09:41:03 33.1842 -91.7275 51° Northeast 395 455 35,000  Level Memphis Center
Fri 09:42:03 33.2564 -91.6192 51° Northeast 403 464 35,000  Level Memphis Center
Fri 09:43:03 33.3283 -91.5033 53° Northeast 415 478 35,000  Level Memphis Center
Fri 09:44:03 33.4131 -91.3800 51° Northeast 426 490 35,000  Level Memphis Center
Fri 09:45:03 33.4869 -91.2664 52° Northeast 426 490 35,000  Level Memphis Center
Fri 09:46:03 33.5608 -91.1575 51° Northeast 426 490 35,000  Level Memphis Center
Fri 09:47:03 33.6367 -91.0433 51° Northeast 426 490 35,000  Level Memphis Center
Fri 09:48:03 33.7081 -90.9292 53° Northeast 426 490 35,000  Level Memphis Center
Fri 09:49:03 33.7817 -90.8144 52° Northeast 426 490 35,000  Level Memphis Center
Fri 09:50:03 33.8531 -90.7022 53° Northeast 426 490 35,000  Level Memphis Center
Fri 09:51:03 33.9283 -90.5875 52° Northeast 426 490 35,000  Level Memphis Center
Fri 09:52:03 33.9994 -90.4750 53° Northeast 426 490 35,000  Level Memphis Center
Fri 09:53:03 34.0725 -90.3622 52° Northeast 431 496 35,000  Level Memphis Center
Fri 09:54:03 34.1433 -90.2492 53° Northeast 420 483 35,000  Level Memphis Center
Fri 09:55:03 34.2183 -90.1336 52° Northeast 420 483 35,000  Level Memphis Center
Fri 09:56:03 34.2892 -90.0203 53° Northeast 420 483 35,000  Level Memphis Center
Fri 09:57:03 34.3597 -89.9042 54° Northeast 425 489 35,000  Level Memphis Center
Fri 09:58:03 34.4322 -89.7906 52° Northeast 425 489 35,000  Level Memphis Center
Fri 09:59:03 34.5025 -89.6742 54° Northeast 425 489 35,000  Level Memphis Center
Fri 10:00:03 34.5750 -89.5575 53° Northeast 425 489 35,000  Level Memphis Center
Fri 10:01:03 34.6472 -89.4433 52° Northeast 430 495 35,000  Level Memphis Center
Fri 10:02:03 34.7192 -89.3264 53° Northeast 430 495 35,000 -50 Level Memphis Center
Fri 10:03:03 34.7831 -89.2242 53° Northeast 430 495 34,900 -750 Descending Memphis Center
Fri 10:04:03 34.8550 -89.1069 53° Northeast 424 488 33,500 -1,400 Descending Memphis Center
Fri 10:05:03 34.9267 -88.9919 53° Northeast 424 488 32,100 -1,450 Descending Memphis Center
Fri 10:06:03 34.9986 -88.8792 52° Northeast 418 481 30,600 -1,450 Descending Memphis Center
Fri 10:07:03 35.0681 -88.7614 54° Northeast 418 481 29,200 -1,450 Descending Memphis Center
Fri 10:08:03 35.1394 -88.6456 53° Northeast 418 481 27,700 -1,450 Descending Memphis Center
Fri 10:09:03 35.2108 -88.5322 52° Northeast 418 481 26,300 -1,450 Descending Memphis Center
Fri 10:10:03 35.2881 -88.4061 53° Northeast 418 481 24,800 -1,150 Descending Memphis Center
Fri 10:11:03 35.3592 -88.2897 53° Northeast 418 481 24,000 -400 Descending Memphis Center
Fri 10:12:03 35.4219 -88.1786 55° Northeast 423 487 24,000  Level Memphis Center
Fri 10:13:03 35.5031 -88.0489 52° Northeast 433 498 24,000 -500 Level Memphis Center
Fri 10:14:03 35.5739 -87.9269 54° Northeast 439 505 23,000 -1,400 Descending Memphis Center
Fri 10:15:03 35.6444 -87.8100 53° Northeast 427 491 21,200 -2,000 Descending Memphis Center
Fri 10:16:03 35.7108 -87.6956 54° Northeast 416 479 19,000 -2,000 Descending Memphis Center
Fri 10:17:03 35.7711 -87.5936 54° Northeast 416 479 17,200 -2,300 Descending Memphis Center
Fri 10:18:03 35.8292 -87.4792 58° Northeast 405 466 14,400 -2,350 Descending Memphis Center
Fri 10:19:03 35.8681 -87.3703 66° East 367 422 12,500 -2,100 Descending Memphis Center
Fri 10:20:03 35.9069 -87.2561 67° East 360 414 10,200 -1,450 Descending Memphis Center
Fri 10:21:03 35.9231 -87.1503 79° East 331 381 9,600 -850 Descending Memphis Center
Fri 10:22:03 35.9314 -87.0628 83° East 278 320 8,500 -1,600 Descending Memphis Center
Fri 10:23:03 35.9519 -86.9800 73° East 245 282 6,400 -1,950 Descending Memphis Center
Fri 10:24:03 35.9808 -86.8942 67° East 250 288 4,600 -1,800 Descending Memphis Center
Fri 10:25:03 36.0100 -86.8133 66° East 255 293 2,800 -1,100 Descending Memphis Center
Fri 10:26:03 36.0431 -86.7325 63° Northeast 245 282 2,400 -600 Descending Memphis Center
Fri 10:27:03 36.0836 -86.6972 35° Northeast 202 232 1,600 -900 Descending Memphis Center
Fri 10:28:03 36.1208 -86.6853 15° North 154 177 600 -500 Descending Memphis Center
Fri 10:29:03 36.1533 -86.6581 34° Northeast 154 177 600  Level Memphis Center

Login

Don't have an account? Register now (free) for customized features, flight alerts, and more!